Time;durP1;ratioP1;P1;durP2;ratioP2;P2;SDS_P1;SDS_P2;PMS_P1;PMS_P2;Temp;Humidity;BMP_temperature;BMP_pressure;BME280_temperature;BME280_humidity;BME280_pressure;Samples;Min_cycle;Max_cycle;Signal;HPM_P1;HPM_P2
2022/06/09 00:00:05;;;;;;;0.90;0.57;;;15.00;99.90;;;;;;5093872;28;20086;-74
2022/06/09 00:02:31;;;;;;;0.60;0.60;;;15.00;99.90;;;;;;5093762;28;20044;-74
2022/06/09 00:04:58;;;;;;;0.40;0.40;;;15.00;99.90;;;;;;5093917;28;20469;-78
2022/06/09 00:07:25;;;;;;;0.70;0.70;;;15.00;99.90;;;;;;5093827;28;20438;-74
2022/06/09 00:09:54;;;;;;;;;;;15.00;99.90;;;;;;5094102;28;20044;-78
2022/06/09 00:12:22;;;;;;;0.38;0.38;;;15.00;99.90;;;;;;5093846;28;19971;-77
2022/06/09 00:14:48;;;;;;;0.32;0.32;;;15.00;99.90;;;;;;5093813;28;20055;-77
2022/06/09 00:17:13;;;;;;;1.20;1.10;;;15.00;99.90;;;;;;5093631;28;20036;-78
2022/06/09 00:19:39;;;;;;;0.40;0.40;;;15.00;99.90;;;;;;5093768;28;20044;-76
2022/06/09 00:22:05;;;;;;;0.30;0.30;;;14.90;99.90;;;;;;5093781;28;20071;-78
2022/06/09 00:24:30;;;;;;;0.40;0.40;;;14.90;99.90;;;;;;5093745;28;20083;-76
2022/06/09 00:26:56;;;;;;;0.30;0.30;;;14.90;99.90;;;;;;5093636;28;20116;-79
2022/06/09 00:29:22;;;;;;;0.63;0.60;;;14.90;99.90;;;;;;5093651;28;20036;-74
2022/06/09 00:31:47;;;;;;;0.93;0.90;;;14.90;99.90;;;;;;5093721;28;20048;-77
2022/06/09 00:34:13;;;;;;;0.40;0.40;;;14.80;99.90;;;;;;5095564;28;20047;-77
2022/06/09 00:36:38;;;;;;;0.30;0.30;;;14.80;99.90;;;;;;5097306;28;20048;-79
2022/06/09 00:39:05;;;;;;;0.30;0.30;;;14.80;99.90;;;;;;5097289;28;20036;-75
2022/06/09 00:41:38;;;;;;;0.40;0.40;;;14.80;99.90;;;;;;5097610;28;20466;-77
2022/06/09 00:44:21;;;;;;;0.30;0.30;;;14.60;99.90;;;;;;5097559;28;20044;-75
2022/06/09 00:46:57;;;;;;;0.57;0.57;;;14.60;99.90;;;;;;5097441;28;20135;-77
2022/06/09 00:49:30;;;;;;;0.30;0.30;;;14.60;99.90;;;;;;5097869;28;20126;-76
2022/06/09 00:51:59;;;;;;;0.47;0.40;;;14.50;99.90;;;;;;5097490;28;20488;-78
2022/06/09 00:54:33;;;;;;;0.30;0.30;;;14.40;99.90;;;;;;5096762;28;20574;-76
2022/06/09 00:57:09;;;;;;;0.52;0.52;;;14.40;99.90;;;;;;5097146;28;20048;-77
2022/06/09 00:59:36;;;;;;;0.40;0.40;;;14.40;99.90;;;;;;5097108;28;20048;-76
2022/06/09 01:02:06;;;;;;;0.40;0.40;;;14.40;99.90;;;;;;5096694;28;20055;-77
2022/06/09 01:04:33;;;;;;;0.40;0.40;;;14.30;99.90;;;;;;5097094;28;20048;-77
2022/06/09 01:07:14;;;;;;;0.40;0.40;;;14.30;99.90;;;;;;5097115;28;20105;-77
2022/06/09 01:09:40;;;;;;;0.30;0.30;;;14.20;99.90;;;;;;5096991;28;20044;-80
2022/06/09 01:12:32;;;;;;;0.65;0.65;;;14.20;99.90;;;;;;5096643;28;20051;-79
2022/06/09 01:15:08;;;;;;;0.40;0.40;;;14.20;99.90;;;;;;5097090;28;20056;-73
2022/06/09 01:18:02;;;;;;;0.38;0.38;;;14.10;99.90;;;;;;5096622;28;20089;-80
2022/06/09 01:20:30;;;;;;;0.30;0.30;;;14.10;99.90;;;;;;5096757;28;20052;-79
2022/06/09 01:23:06;;;;;;;0.40;0.40;;;14.10;99.90;;;;;;5096665;28;20140;-79
2022/06/09 01:26:02;;;;;;;0.30;0.30;;;14.00;99.90;;;;;;5096921;28;20122;-73
2022/06/09 01:29:10;;;;;;;0.35;0.35;;;14.00;99.90;;;;;;5095444;28;20048;-77
2022/06/09 01:31:59;;;;;;;0.30;0.30;;;14.00;99.90;;;;;;5095127;28;20399;-77
2022/06/09 01:34:24;;;;;;;;;;;14.00;99.90;;;;;;5097200;28;20461;-75
2022/06/09 01:36:59;;;;;;;0.40;0.40;;;14.00;99.90;;;;;;5096333;28;19951;-76
2022/06/09 01:39:41;;;;;;;0.50;0.50;;;13.90;99.90;;;;;;5096248;28;20048;-72
2022/06/09 01:42:28;;;;;;;0.50;0.50;;;13.90;99.90;;;;;;5096379;28;20055;-78
2022/06/09 01:45:09;;;;;;;0.45;0.45;;;14.00;99.90;;;;;;5095130;28;20403;-76
2022/06/09 01:47:47;;;;;;;0.50;0.50;;;14.00;99.90;;;;;;5096211;28;20048;-74
2022/06/09 01:50:38;;;;;;;0.40;0.40;;;14.00;99.90;;;;;;5096591;28;20055;-76
2022/06/09 01:53:09;;;;;;;0.40;0.40;;;14.00;99.90;;;;;;5096262;28;20044;-73
2022/06/09 01:55:39;;;;;;;0.40;0.40;;;14.00;99.90;;;;;;5095919;28;20044;-75
2022/06/09 01:58:07;;;;;;;0.45;0.45;;;13.90;99.90;;;;;;5095794;28;20442;-75
2022/06/09 02:00:33;;;;;;;32.35;2.05;;;13.80;99.90;;;;;;5095826;28;20391;-77
2022/06/09 02:03:08;;;;;;;0.47;0.47;;;13.90;99.90;;;;;;5095561;28;20119;-77
2022/06/09 02:05:39;;;;;;;0.43;0.43;;;13.90;99.90;;;;;;5096259;28;20078;-75
2022/06/09 02:08:07;;;;;;;0.40;0.40;;;13.90;99.90;;;;;;5095839;28;20089;-76
2022/06/09 02:10:41;;;;;;;0.40;0.40;;;13.90;99.90;;;;;;5095416;28;20097;-77
2022/06/09 02:13:15;;;;;;;0.40;0.40;;;14.00;99.90;;;;;;5095961;28;20109;-77
2022/06/09 02:15:53;;;;;;;0.45;0.45;;;14.00;99.90;;;;;;5095774;28;20048;-75
2022/06/09 02:18:23;;;;;;;0.43;0.43;;;14.00;99.90;;;;;;5095561;28;20044;-75
2022/06/09 02:20:56;;;;;;;0.40;0.40;;;13.90;99.90;;;;;;5095739;28;20486;-75
2022/06/09 02:23:21;;;;;;;2.00;1.08;;;13.90;99.90;;;;;;5094234;28;20044;-74
2022/06/09 02:25:47;;;;;;;0.40;0.40;;;13.90;99.90;;;;;;5095245;28;20047;-77
2022/06/09 02:28:13;;;;;;;0.30;0.30;;;13.90;99.90;;;;;;5095259;28;20051;-77
2022/06/09 02:30:39;;;;;;;0.40;0.40;;;13.80;99.90;;;;;;5095179;28;20384;-73
2022/06/09 02:33:05;;;;;;;0.40;0.40;;;13.90;99.90;;;;;;5095025;28;20126;-78
2022/06/09 02:35:31;;;;;;;0.40;0.40;;;13.80;99.90;;;;;;5095021;28;20048;-78
2022/06/09 02:37:56;;;;;;;0.40;0.40;;;13.80;99.90;;;;;;5094877;28;20309;-75
2022/06/09 02:40:22;;;;;;;0.40;0.40;;;13.80;99.90;;;;;;5094876;28;20051;-78
2022/06/09 02:42:47;;;;;;;0.50;0.50;;;13.90;99.90;;;;;;5095354;28;20040;-77
2022/06/09 02:45:15;;;;;;;2.30;2.03;;;13.80;99.90;;;;;;5095120;28;20047;-73
2022/06/09 02:47:40;;;;;;;0.40;0.40;;;13.70;99.90;;;;;;5095001;28;20393;-74
2022/06/09 02:50:06;;;;;;;1.33;0.70;;;13.70;99.90;;;;;;5095088;28;20047;-77
2022/06/09 02:52:32;;;;;;;0.50;0.50;;;13.70;99.90;;;;;;5094950;28;20040;-75
2022/06/09 02:54:58;;;;;;;0.40;0.40;;;13.80;99.90;;;;;;5094622;28;20040;-78
2022/06/09 02:57:24;;;;;;;0.50;0.50;;;13.70;99.90;;;;;;5094437;28;20051;-77
2022/06/09 02:59:53;;;;;;;0.50;0.50;;;13.60;99.90;;;;;;5094893;28;20114;-78
2022/06/09 03:02:19;;;;;;;0.60;0.60;;;13.60;99.90;;;;;;5094633;28;20048;-73
2022/06/09 03:04:45;;;;;;;1.08;0.70;;;13.60;99.90;;;;;;5094780;28;20044;-76
2022/06/09 03:07:12;;;;;;;0.45;0.45;;;13.50;99.90;;;;;;5094541;28;20130;-77
2022/06/09 03:09:38;;;;;;;0.70;0.70;;;13.60;99.90;;;;;;5094324;28;20476;-77
2022/06/09 03:12:04;;;;;;;0.40;0.40;;;13.60;99.90;;;;;;5094853;28;20395;-75
2022/06/09 03:14:30;;;;;;;0.93;0.90;;;13.60;99.90;;;;;;5095088;28;20468;-78
2022/06/09 03:16:56;;;;;;;0.98;0.75;;;13.60;99.90;;;;;;5094390;28;20051;-79
2022/06/09 03:19:21;;;;;;;0.40;0.40;;;13.60;99.90;;;;;;5094377;28;20099;-72
2022/06/09 03:21:47;;;;;;;4.33;1.73;;;13.60;99.90;;;;;;5094225;28;20130;-75
2022/06/09 03:24:13;;;;;;;0.40;0.40;;;13.60;99.90;;;;;;5094314;28;20048;-76
2022/06/09 03:26:39;;;;;;;2.10;1.07;;;13.60;99.90;;;;;;5094312;28;20043;-77
2022/06/09 03:29:05;;;;;;;0.50;0.50;;;13.60;99.90;;;;;;5094184;28;20051;-73
2022/06/09 03:31:30;;;;;;;0.40;0.40;;;13.60;99.90;;;;;;5094390;28;20059;-77
2022/06/09 03:33:56;;;;;;;1.17;1.13;;;13.50;99.90;;;;;;5093980;28;20492;-75
2022/06/09 03:36:22;;;;;;;0.40;0.40;;;13.60;99.90;;;;;;5094225;28;20131;-77
2022/06/09 03:38:48;;;;;;;0.40;0.40;;;13.60;99.90;;;;;;5095168;28;20036;-74
2022/06/09 03:41:13;;;;;;;0.40;0.40;;;13.60;99.90;;;;;;5095915;28;20069;-72
2022/06/09 03:43:39;;;;;;;0.43;0.43;;;13.50;99.90;;;;;;5098200;28;20080;-74
2022/06/09 03:46:05;;;;;;;0.40;0.40;;;13.50;99.90;;;;;;5096997;28;20044;-75
2022/06/09 03:48:30;;;;;;;0.40;0.40;;;13.60;99.90;;;;;;5097527;28;20538;-75
2022/06/09 03:50:56;;;;;;;0.30;0.30;;;13.50;99.90;;;;;;5098328;28;20055;-74
2022/06/09 03:53:22;;;;;;;0.40;0.40;;;13.50;99.90;;;;;;5097296;28;20459;-77
2022/06/09 03:55:48;;;;;;;0.40;0.40;;;13.50;99.90;;;;;;5097644;28;20043;-80
2022/06/09 03:58:13;;;;;;;1.30;1.13;;;13.50;99.90;;;;;;5097087;28;20174;-72
2022/06/09 04:00:39;;;;;;;0.77;0.77;;;13.50;99.90;;;;;;5097618;28;20173;-72
2022/06/09 04:03:05;;;;;;;0.40;0.40;;;13.50;99.90;;;;;;5098281;28;20094;-74
2022/06/09 04:05:32;;;;;;;0.30;0.30;;;13.50;99.90;;;;;;5097269;28;20054;-73
2022/06/09 04:07:58;;;;;;;;;;;13.50;99.90;;;;;;5098059;28;20282;-73
2022/06/09 04:10:28;;;;;;;0.32;0.32;;;13.50;99.90;;;;;;5102537;28;19924;-72
2022/06/09 04:12:54;;;;;;;0.30;0.30;;;13.50;99.90;;;;;;5100096;28;20052;-76
2022/06/09 04:15:20;;;;;;;0.40;0.40;;;13.50;99.90;;;;;;5100456;28;20552;-71
2022/06/09 04:17:46;;;;;;;0.50;0.50;;;13.50;99.90;;;;;;5101246;28;20036;-73
2022/06/09 04:20:14;;;;;;;0.40;0.40;;;13.50;99.90;;;;;;5099693;28;20040;-73
2022/06/09 04:22:40;;;;;;;0.60;0.60;;;13.40;99.90;;;;;;5097796;28;20048;-76
2022/06/09 04:25:06;;;;;;;0.40;0.40;;;13.50;99.90;;;;;;5097961;28;20495;-75
2022/06/09 04:27:32;;;;;;;0.40;0.40;;;13.50;99.90;;;;;;5097583;28;20432;-75
2022/06/09 04:29:58;;;;;;;0.40;0.40;;;13.50;99.90;;;;;;5097845;28;20136;-75
2022/06/09 04:32:24;;;;;;;0.40;0.40;;;13.50;99.90;;;;;;5097456;28;20381;-74
2022/06/09 04:34:50;;;;;;;0.40;0.40;;;13.50;99.90;;;;;;5097495;28;20043;-75
2022/06/09 04:37:16;;;;;;;0.57;0.57;;;13.60;99.90;;;;;;5097438;28;20071;-74
2022/06/09 04:39:41;;;;;;;0.40;0.40;;;13.60;99.90;;;;;;5097671;28;20086;-74
2022/06/09 04:42:08;;;;;;;0.40;0.40;;;13.80;99.90;;;;;;5097230;28;20062;-76
2022/06/09 04:44:34;;;;;;;0.65;0.60;;;13.70;99.90;;;;;;5097193;28;20093;-77
2022/06/09 04:46:59;;;;;;;0.40;0.40;;;13.80;99.90;;;;;;5096021;28;20483;-78
2022/06/09 04:49:25;;;;;;;0.40;0.40;;;13.80;99.90;;;;;;5097078;28;20044;-75
2022/06/09 04:51:51;;;;;;;0.63;0.63;;;13.90;99.90;;;;;;5096856;28;20051;-74
2022/06/09 04:54:16;;;;;;;0.82;0.82;;;13.80;99.90;;;;;;5097490;28;20036;-72
2022/06/09 04:56:42;;;;;;;0.30;0.30;;;14.10;99.90;;;;;;5097038;28;20040;-75
2022/06/09 04:59:08;;;;;;;0.30;0.30;;;14.00;99.90;;;;;;5097129;28;20036;-80
2022/06/09 05:01:33;;;;;;;0.30;0.30;;;14.00;99.90;;;;;;5097001;28;20062;-76
2022/06/09 05:04:00;;;;;;;0.30;0.30;;;14.10;99.90;;;;;;5096921;28;20043;-77
2022/06/09 05:06:27;;;;;;;0.45;0.45;;;14.20;99.90;;;;;;5096824;28;20033;-77
2022/06/09 05:08:55;;;;;;;;;;;14.10;99.90;;;;;;5097162;28;20040;-77
2022/06/09 05:11:21;;;;;;;0.40;0.40;;;14.20;99.90;;;;;;5096741;28;19977;-77
2022/06/09 05:13:47;;;;;;;0.52;0.50;;;14.30;99.90;;;;;;5096367;28;20135;-77
2022/06/09 05:16:13;;;;;;;0.30;0.30;;;14.20;99.90;;;;;;5096619;28;20138;-77
2022/06/09 05:18:39;;;;;;;0.40;0.40;;;14.30;99.90;;;;;;5096554;28;20079;-74
2022/06/09 05:21:07;;;;;;;0.30;0.30;;;14.30;99.90;;;;;;5096481;28;20040;-75
2022/06/09 05:23:33;;;;;;;0.40;0.40;;;14.30;99.90;;;;;;5096435;28;20123;-79
2022/06/09 05:26:00;;;;;;;0.50;0.50;;;14.40;99.90;;;;;;5096398;28;20032;-74
2022/06/09 05:28:28;;;;;;;0.73;0.52;;;14.50;99.90;;;;;;5096373;28;20076;-74
2022/06/09 05:30:54;;;;;;;0.60;0.60;;;14.50;99.90;;;;;;5096519;28;20052;-75
2022/06/09 05:33:20;;;;;;;0.30;0.30;;;14.50;99.90;;;;;;5096316;28;20046;-76
2022/06/09 05:35:46;;;;;;;0.50;0.50;;;14.50;99.90;;;;;;5096270;28;20055;-77
2022/06/09 05:46:27;;;;;;;0.45;0.45;;;14.60;99.90;;;;;;5095953;28;20047;-77
2022/06/09 05:48:53;;;;;;;0.60;0.60;;;14.60;99.90;;;;;;5095945;28;20380;-77
2022/06/09 05:51:19;;;;;;;0.40;0.40;;;14.70;99.90;;;;;;5096355;28;20185;-78
2022/06/09 05:53:45;;;;;;;0.40;0.40;;;14.60;99.90;;;;;;5096144;28;20047;-77
2022/06/09 05:56:11;;;;;;;0.32;0.32;;;14.70;99.90;;;;;;5096160;28;20052;-78
2022/06/09 05:58:37;;;;;;;0.30;0.30;;;14.80;99.90;;;;;;5095841;28;20128;-73
2022/06/09 06:01:08;;;;;;;0.40;0.40;;;14.80;99.90;;;;;;5096772;28;20052;-73
2022/06/09 06:03:35;;;;;;;0.30;0.30;;;14.90;99.90;;;;;;5095827;28;20089;-76
2022/06/09 06:08:44;;;;;;;0.50;0.50;;;14.90;99.90;;;;;;5095429;28;20378;-76
2022/06/09 06:11:10;;;;;;;0.40;0.40;;;14.90;99.90;;;;;;5095114;28;20080;-76
2022/06/09 06:13:35;;;;;;;2.53;1.47;;;15.00;99.90;;;;;;5094403;28;20113;-76
2022/06/09 06:16:01;;;;;;;0.40;0.40;;;14.90;99.90;;;;;;5095480;28;20086;-76
2022/06/09 06:18:28;;;;;;;0.73;0.73;;;14.90;99.90;;;;;;5095135;28;20072;-75
2022/06/09 06:20:55;;;;;;;0.65;0.57;;;14.90;99.90;;;;;;5095259;28;20055;-79
2022/06/09 06:23:22;;;;;;;0.63;0.63;;;14.90;99.90;;;;;;5095258;28;20078;-73
2022/06/09 06:25:48;;;;;;;0.40;0.40;;;14.90;99.90;;;;;;5095137;28;20050;-76
2022/06/09 06:28:13;;;;;;;0.63;0.63;;;14.90;99.90;;;;;;5095137;28;20044;-78
2022/06/09 06:30:39;;;;;;;0.50;0.50;;;14.90;99.90;;;;;;5095275;28;20055;-77
2022/06/09 06:33:05;;;;;;;0.30;0.30;;;15.00;99.90;;;;;;5094739;28;20036;-78
2022/06/09 06:35:30;;;;;;;0.30;0.30;;;15.00;99.90;;;;;;5095047;28;20166;-76
2022/06/09 06:37:56;;;;;;;0.47;0.47;;;15.00;99.90;;;;;;5094932;28;20047;-74
2022/06/09 06:40:22;;;;;;;0.40;0.40;;;15.10;99.90;;;;;;5094908;28;20048;-78
2022/06/09 06:42:47;;;;;;;0.30;0.30;;;15.30;99.90;;;;;;5094841;28;20040;-73
2022/06/09 06:45:14;;;;;;;0.60;0.60;;;15.40;99.90;;;;;;5093916;28;20097;-76
2022/06/09 06:47:40;;;;;;;0.30;0.30;;;15.40;99.90;;;;;;5094686;28;20044;-77
2022/06/09 06:50:07;;;;;;;0.40;0.40;;;15.50;99.90;;;;;;5095024;28;20046;-72
2022/06/09 06:52:33;;;;;;;0.50;0.50;;;15.50;99.90;;;;;;5094696;28;20035;-75
2022/06/09 06:54:59;;;;;;;0.60;0.60;;;15.60;99.90;;;;;;5094712;28;20438;-72
2022/06/09 06:57:25;;;;;;;0.33;0.33;;;15.80;99.90;;;;;;5094512;28;20050;-79
2022/06/09 06:59:51;;;;;;;0.40;0.40;;;15.90;99.90;;;;;;5095073;28;20099;-73
2022/06/09 07:02:18;;;;;;;0.60;0.60;;;15.90;99.90;;;;;;5094993;28;20388;-76
2022/06/09 07:04:44;;;;;;;0.40;0.40;;;16.00;99.90;;;;;;5094725;28;20051;-76
2022/06/09 07:07:10;;;;;;;0.40;0.40;;;16.00;99.90;;;;;;5094463;28;20055;-76
2022/06/09 07:09:35;;;;;;;0.30;0.30;;;16.10;99.90;;;;;;5094098;28;20052;-78
2022/06/09 07:12:01;;;;;;;1.45;0.93;;;16.20;99.90;;;;;;5094481;28;20491;-73
2022/06/09 07:14:27;;;;;;;0.55;0.55;;;16.20;99.90;;;;;;5094706;28;20143;-78
2022/06/09 07:16:52;;;;;;;0.93;0.88;;;16.20;99.90;;;;;;5094348;28;20040;-73
2022/06/09 07:19:19;;;;;;;0.50;0.50;;;16.20;99.90;;;;;;5094237;28;20044;-75
2022/06/09 07:21:45;;;;;;;0.30;0.30;;;16.30;99.90;;;;;;5093912;28;20123;-74
2022/06/09 07:24:12;;;;;;;0.30;0.30;;;16.40;99.90;;;;;;5094081;28;20536;-74
2022/06/09 07:26:37;;;;;;;0.30;0.30;;;16.50;99.90;;;;;;5094622;28;20148;-75
2022/06/09 07:29:03;;;;;;;0.40;0.40;;;16.80;99.90;;;;;;5094176;28;20085;-77
2022/06/09 07:31:29;;;;;;;0.30;0.30;;;16.90;99.90;;;;;;5094425;28;20123;-77
2022/06/09 07:33:55;;;;;;;0.47;0.47;;;17.00;99.90;;;;;;5094049;28;20051;-76
2022/06/09 07:36:23;;;;;;;0.63;0.63;;;17.20;99.90;;;;;;5094067;28;20055;-77
2022/06/09 07:38:49;;;;;;;0.50;0.50;;;17.30;99.90;;;;;;5093920;28;20040;-76
2022/06/09 07:41:14;;;;;;;0.90;0.87;;;17.40;99.90;;;;;;5094047;28;20044;-75
2022/06/09 07:43:40;;;;;;;0.57;0.57;;;17.50;99.90;;;;;;5093641;28;20051;-77
2022/06/09 07:46:06;;;;;;;0.30;0.30;;;17.80;99.90;;;;;;5093918;28;20047;-75
2022/06/09 07:48:32;;;;;;;0.40;0.40;;;18.10;99.90;;;;;;5093628;28;20109;-74
2022/06/09 07:50:57;;;;;;;0.40;0.40;;;18.30;99.90;;;;;;5093864;28;20079;-78
2022/06/09 07:53:24;;;;;;;0.30;0.30;;;18.40;99.90;;;;;;5093822;28;20043;-77
2022/06/09 07:55:50;;;;;;;0.35;0.35;;;18.40;99.90;;;;;;5093652;28;20036;-73
2022/06/09 07:58:17;;;;;;;0.57;0.57;;;18.40;99.90;;;;;;5093674;28;20037;-75
2022/06/09 08:00:44;;;;;;;0.73;0.55;;;18.30;99.90;;;;;;5093708;28;20040;-76
2022/06/09 08:03:15;;;;;;;0.38;0.38;;;18.50;99.90;;;;;;5093929;28;20044;-75
2022/06/09 08:05:41;;;;;;;0.40;0.40;;;18.60;99.90;;;;;;5093656;28;20101;-76
2022/06/09 08:08:07;;;;;;;0.30;0.30;;;18.40;99.90;;;;;;5093521;28;20036;-79
2022/06/09 08:10:33;;;;;;;0.30;0.30;;;18.50;99.90;;;;;;5093596;28;20040;-75
2022/06/09 08:13:01;;;;;;;1.10;1.05;;;18.60;99.90;;;;;;5093593;28;20067;-75
2022/06/09 08:15:27;;;;;;;0.30;0.30;;;18.70;99.90;;;;;;5093558;28;20377;-75
2022/06/09 08:17:54;;;;;;;0.30;0.30;;;18.60;99.90;;;;;;5093795;28;20389;-79
2022/06/09 08:20:21;;;;;;;0.20;0.20;;;18.60;99.90;;;;;;5092189;28;20044;-78
2022/06/09 08:22:47;;;;;;;0.75;0.75;;;18.80;99.90;;;;;;5093524;28;20133;-78
2022/06/09 08:25:15;;;;;;;0.30;0.30;;;19.10;99.90;;;;;;5093475;28;20055;-75
2022/06/09 08:27:42;;;;;;;0.30;0.30;;;19.40;99.90;;;;;;5093437;28;20047;-77
2022/06/09 08:30:11;;;;;;;0.30;0.30;;;19.40;99.90;;;;;;5093417;28;20051;-77
2022/06/09 08:32:37;;;;;;;0.30;0.30;;;19.30;99.90;;;;;;5093403;28;20127;-78
2022/06/09 08:35:04;;;;;;;0.30;0.30;;;19.50;99.90;;;;;;5093395;28;20094;-77
2022/06/09 08:37:30;;;;;;;0.30;0.30;;;19.40;99.90;;;;;;5093193;28;20063;-77
2022/06/09 08:39:55;;;;;;;0.27;0.27;;;19.40;99.90;;;;;;5093420;28;20418;-76
2022/06/09 08:42:46;;;;;;;0.30;0.30;;;19.40;99.90;;;;;;5093413;28;20044;-77
2022/06/09 08:45:27;;;;;;;0.30;0.30;;;19.50;99.90;;;;;;5093293;28;20051;-74
2022/06/09 08:47:55;;;;;;;0.30;0.30;;;19.80;99.90;;;;;;5093325;28;20118;-75
2022/06/09 08:50:27;;;;;;;0.30;0.30;;;20.10;99.90;;;;;;5093268;28;20094;-78
2022/06/09 08:53:01;;;;;;;0.20;0.20;;;20.20;99.90;;;;;;5093080;28;20097;-79
2022/06/09 08:55:36;;;;;;;0.20;0.20;;;20.40;99.90;;;;;;5095882;28;20110;-76
2022/06/09 08:58:11;;;;;;;0.40;0.40;;;20.50;99.90;;;;;;5096949;28;20044;-76
2022/06/09 09:00:48;;;;;;;0.30;0.30;;;20.60;99.90;;;;;;5096929;28;20130;-76
2022/06/09 09:03:31;;;;;;;;;;;20.50;99.90;;;;;;5097681;28;20051;-79
2022/06/09 09:06:07;;;;;;;0.30;0.30;;;20.50;99.90;;;;;;5097013;28;20011;-78
2022/06/09 09:08:35;;;;;;;0.30;0.30;;;20.40;99.90;;;;;;5096723;28;20044;-75
2022/06/09 09:11:32;;;;;;;0.30;0.30;;;20.30;99.90;;;;;;5096573;28;20051;-76
2022/06/09 09:14:05;;;;;;;0.30;0.30;;;20.30;99.90;;;;;;5096749;28;20048;-78
2022/06/09 09:16:45;;;;;;;0.30;0.30;;;20.20;99.90;;;;;;5096595;28;20063;-75
2022/06/09 09:19:31;;;;;;;0.40;0.40;;;20.20;99.90;;;;;;5096513;28;20043;-76
2022/06/09 09:22:23;;;;;;;0.20;0.20;;;20.00;99.90;;;;;;5096829;28;20412;-75
2022/06/09 09:25:01;;;;;;;0.30;0.30;;;19.70;99.90;;;;;;5085862;28;20048;-75
2022/06/09 09:27:46;;;;;;;13.75;0.60;;;19.60;99.90;;;;;;5096442;28;20044;-75
2022/06/09 09:30:20;;;;;;;0.30;0.30;;;19.60;99.90;;;;;;5096339;28;20046;-78
2022/06/09 09:32:54;;;;;;;0.30;0.30;;;19.90;99.90;;;;;;5096554;28;20036;-77
2022/06/09 09:35:27;;;;;;;0.30;0.30;;;20.30;99.90;;;;;;5096397;28;20048;-75
2022/06/09 09:37:55;;;;;;;0.30;0.30;;;20.70;99.90;;;;;;5096260;28;20051;-73
2022/06/09 09:40:29;;;;;;;0.30;0.30;;;20.90;99.90;;;;;;5095828;28;20059;-77
2022/06/09 09:42:58;;;;;;;0.30;0.30;;;21.30;99.90;;;;;;5096018;28;20047;-79
2022/06/09 09:45:37;;;;;;;0.30;0.30;;;21.60;99.90;;;;;;5096011;28;20053;-79
2022/06/09 09:48:28;;;;;;;0.20;0.20;;;21.70;99.90;;;;;;5096238;28;20055;-75
2022/06/09 09:51:13;;;;;;;0.30;0.30;;;21.40;99.90;;;;;;5096448;28;20036;-77
2022/06/09 09:53:50;;;;;;;0.20;0.20;;;21.20;99.90;;;;;;5096234;28;20087;-77
2022/06/09 09:56:15;;;;;;;;;;;20.80;99.90;;;;;;5096067;28;20480;-76
2022/06/09 09:58:47;;;;;;;0.30;0.30;;;20.30;99.90;;;;;;5095736;28;19920;-79
2022/06/09 10:01:22;;;;;;;0.30;0.30;;;20.20;99.90;;;;;;5094592;28;20044;-74
2022/06/09 10:09:48;;;;;;;0.20;0.20;;;19.90;99.90;;;;;;5095444;28;20048;-77
2022/06/09 10:12:16;;;;;;;0.20;0.20;;;19.90;99.90;;;;;;5095717;28;20048;-75
2022/06/09 10:14:53;;;;;;;2.28;0.30;;;20.00;99.90;;;;;;5095340;28;20063;-75
2022/06/09 10:17:26;;;;;;;0.40;0.40;;;20.30;99.90;;;;;;5095435;28;20043;-78
2022/06/09 10:20:05;;;;;;;0.30;0.30;;;20.50;99.90;;;;;;5095437;28;20044;-77
2022/06/09 10:22:37;;;;;;;0.30;0.30;;;20.40;99.90;;;;;;5095826;28;20048;-78
2022/06/09 10:25:27;;;;;;;0.28;0.28;;;20.40;99.90;;;;;;5095168;28;20048;-76
2022/06/09 10:28:01;;;;;;;0.35;0.35;;;20.10;99.90;;;;;;5095262;28;20036;-75
2022/06/09 10:30:40;;;;;;;0.30;0.30;;;19.70;99.90;;;;;;5095262;28;20544;-73
2022/06/09 10:33:28;;;;;;;0.28;0.28;;;19.50;99.90;;;;;;5095161;28;20097;-74
2022/06/09 10:35:58;;;;;;;0.30;0.30;;;19.30;99.90;;;;;;5095220;28;20476;-74
2022/06/09 10:38:33;;;;;;;0.38;0.38;;;19.40;99.90;;;;;;5095093;28;20040;-77
2022/06/09 10:41:02;;;;;;;0.30;0.30;;;19.50;99.90;;;;;;5095011;28;20051;-77
2022/06/09 10:43:35;;;;;;;0.20;0.20;;;20.00;99.90;;;;;;5095477;28;20081;-75
2022/06/09 10:46:34;;;;;;;0.20;0.20;;;20.40;99.90;;;;;;5094927;28;20131;-76
2022/06/09 10:57:49;;;;;;;0.30;0.30;;;20.70;99.90;;;;;;5094460;28;20048;-76
2022/06/09 11:00:24;;;;;;;0.20;0.20;;;20.80;99.90;;;;;;5095012;28;20048;-74
2022/06/09 11:02:54;;;;;;;0.20;0.20;;;21.30;99.90;;;;;;5094789;28;20048;-72
2022/06/09 11:05:30;;;;;;;0.20;0.20;;;21.50;99.90;;;;;;5094738;28;20369;-78
2022/06/09 11:08:07;;;;;;;0.28;0.28;;;21.60;99.90;;;;;;5094580;28;20083;-78
2022/06/09 11:11:07;;;;;;;0.30;0.30;;;21.50;99.90;;;;;;5095185;28;20392;-74
2022/06/09 11:14:13;;;;;;;0.40;0.40;;;21.40;99.90;;;;;;5094600;28;20056;-74
2022/06/09 11:16:50;;;;;;;0.50;0.50;;;21.40;99.90;;;;;;5071226;28;20121;-81
2022/06/09 11:19:22;;;;;;;0.30;0.30;;;21.40;99.90;;;;;;5094163;28;20499;-77
2022/06/09 11:22:06;;;;;;;0.20;0.20;;;21.40;99.90;;;;;;5094288;28;20044;-77
2022/06/09 11:24:51;;;;;;;0.30;0.30;;;21.60;99.90;;;;;;5094288;28;20044;-78
2022/06/09 11:27:53;;;;;;;0.20;0.20;;;21.70;99.90;;;;;;5094284;28;20131;-78
2022/06/09 11:30:29;;;;;;;0.30;0.30;;;21.90;99.90;;;;;;5021700;28;20161;-79
2022/06/09 11:33:17;;;;;;;0.20;0.20;;;21.90;99.90;;;;;;5094187;28;20048;-80
2022/06/09 11:35:49;;;;;;;;;;;22.00;99.90;;;;;;5094871;28;20052;-80
2022/06/09 11:38:36;;;;;;;0.30;0.30;;;22.20;99.90;;;;;;5093285;28;19920;-79
2022/06/09 11:41:14;;;;;;;0.20;0.20;;;22.40;99.90;;;;;;5093993;28;20036;-79
2022/06/09 11:43:53;;;;;;;0.30;0.30;;;22.40;99.90;;;;;;5094019;28;20094;-78
2022/06/09 11:46:24;;;;;;;7.47;0.40;;;22.30;99.90;;;;;;5094399;28;20051;-77
2022/06/09 11:48:55;;;;;;;0.30;0.30;;;22.10;99.90;;;;;;5093995;28;20127;-79
2022/06/09 11:51:23;;;;;;;0.32;0.32;;;22.10;99.90;;;;;;5094054;28;20047;-77
2022/06/09 11:53:53;;;;;;;0.20;0.20;;;22.20;99.90;;;;;;5093884;28;20055;-75
2022/06/09 11:56:40;;;;;;;0.30;0.30;;;22.10;99.90;;;;;;5093977;28;20044;-78
2022/06/09 11:59:11;;;;;;;0.63;0.63;;;22.00;99.90;;;;;;5094039;28;20044;-75
2022/06/09 12:01:37;;;;;;;0.20;0.20;;;22.10;99.90;;;;;;5093923;28;20492;-76
2022/06/09 12:04:40;;;;;;;0.20;0.20;;;22.20;99.90;;;;;;5093822;28;20048;-78
2022/06/09 12:07:35;;;;;;;0.20;0.20;;;22.50;99.90;;;;;;5093716;28;20048;-75
2022/06/09 12:10:23;;;;;;;0.30;0.30;;;22.50;99.90;;;;;;5093960;28;20044;-76
2022/06/09 12:13:19;;;;;;;0.30;0.30;;;22.50;99.90;;;;;;5093582;28;20056;-76
2022/06/09 12:16:01;;;;;;;0.30;0.30;;;22.60;99.90;;;;;;5094162;28;20083;-78
2022/06/09 12:18:38;;;;;;;0.30;0.30;;;22.60;99.90;;;;;;5093869;28;20066;-75
2022/06/09 12:21:27;;;;;;;0.20;0.20;;;22.70;99.90;;;;;;5093721;28;20084;-74
2022/06/09 12:24:14;;;;;;;0.20;0.20;;;22.70;99.90;;;;;;5093724;28;20044;-79
2022/06/09 12:26:39;;;;;;;0.30;0.30;;;22.60;99.90;;;;;;5093707;28;20044;-76
2022/06/09 12:29:23;;;;;;;0.30;0.30;;;22.60;99.90;;;;;;5093734;28;20046;-72
2022/06/09 12:32:10;;;;;;;0.20;0.20;;;22.60;99.90;;;;;;5097057;28;20129;-79
2022/06/09 12:34:50;;;;;;;0.30;0.30;;;22.70;99.90;;;;;;5097181;28;20506;-74
2022/06/09 12:37:34;;;;;;;0.20;0.20;;;22.80;99.90;;;;;;5097523;28;20040;-71
2022/06/09 12:40:05;;;;;;;0.20;0.20;;;22.60;99.90;;;;;;5097342;28;20040;-75
2022/06/09 12:42:45;;;;;;;0.25;0.25;;;22.30;99.90;;;;;;5097399;28;20040;-74
2022/06/09 12:45:11;;;;;;;0.20;0.20;;;22.20;99.90;;;;;;5097297;28;20055;-78
2022/06/09 12:47:50;;;;;;;0.20;0.20;;;22.30;99.90;;;;;;5097140;28;20033;-75
2022/06/09 12:50:48;;;;;;;0.57;0.40;;;22.30;99.90;;;;;;5097064;28;20040;-76
2022/06/09 12:53:26;;;;;;;0.40;0.40;;;22.30;99.90;;;;;;5096775;28;20488;-76
2022/06/09 12:55:59;;;;;;;2.10;0.30;;;22.60;99.90;;;;;;5097072;28;20044;-74
2022/06/09 12:58:47;;;;;;;0.20;0.20;;;22.80;99.90;;;;;;5096954;28;20047;-77
2022/06/09 13:01:17;;;;;;;0.20;0.20;;;22.80;99.90;;;;;;5096191;28;20472;-78
2022/06/09 13:03:46;;;;;;;0.20;0.20;;;22.70;99.90;;;;;;5096822;28;20079;-77
2022/06/09 13:06:30;;;;;;;0.30;0.30;;;22.50;99.90;;;;;;5096795;28;20134;-74
2022/06/09 13:09:17;;;;;;;0.95;0.65;;;22.50;99.90;;;;;;5096778;28;20051;-77
2022/06/09 13:14:32;;;;;;;0.30;0.30;;;22.60;99.70;;;;;;5097043;28;20060;-77
2022/06/09 13:16:59;;;;;;;;;;;22.50;99.90;;;;;;5097308;28;20075;-74
2022/06/09 13:19:29;;;;;;;0.30;0.30;;;22.50;99.90;;;;;;5096731;28;19927;-76
2022/06/09 13:21:58;;;;;;;0.20;0.20;;;22.60;99.90;;;;;;5096360;28;20488;-74
2022/06/09 13:24:26;;;;;;;0.30;0.30;;;22.70;99.90;;;;;;5096538;28;20442;-78
2022/06/09 13:26:54;;;;;;;0.20;0.20;;;22.70;99.90;;;;;;5096876;28;20165;-77
2022/06/09 13:29:23;;;;;;;0.30;0.30;;;22.50;99.10;;;;;;5096395;28;20051;-79
2022/06/09 13:32:16;;;;;;;0.30;0.30;;;22.50;99.90;;;;;;5096491;28;20470;-73
2022/06/09 13:34:44;;;;;;;0.20;0.20;;;22.70;99.90;;;;;;5096414;28;20151;-74
2022/06/09 13:37:23;;;;;;;0.30;0.30;;;22.90;99.90;;;;;;5096612;28;20051;-74